createdAt,value
2019-01-23T00:04:30.990Z,70.52
2019-01-23T00:09:49.562Z,65.73
2019-01-23T00:15:08.608Z,57.63
2019-01-23T00:20:27.216Z,62.17
2019-01-23T00:25:45.836Z,53.63
2019-01-23T00:31:05.826Z,68.87
2019-01-23T00:36:24.373Z,60.70
2019-01-23T00:41:42.927Z,58.63
2019-01-23T00:47:01.855Z,61.93
2019-01-23T00:52:20.442Z,71.27
2019-01-23T00:57:39.033Z,64.43
2019-01-23T01:02:57.854Z,52.40
2019-01-23T01:08:16.506Z,56.73
2019-01-23T01:13:35.679Z,65.10
2019-01-23T01:18:54.433Z,62.37
2019-01-23T01:24:13.135Z,56.87
2019-01-23T01:29:31.984Z,64.07
2019-01-23T01:34:50.641Z,54.27
2019-01-23T01:40:12.507Z,59.77
2019-01-23T01:45:31.302Z,53.47
2019-01-23T01:50:49.913Z,59.27
2019-01-23T01:56:08.554Z,55.45
2019-01-23T02:01:27.174Z,51.17
2019-01-23T02:06:45.794Z,57.43
2019-01-23T02:12:04.536Z,58.40
2019-01-23T02:17:23.171Z,52.83
2019-01-23T02:22:41.814Z,52.27
2019-01-23T02:28:00.796Z,47.57
2019-01-23T02:33:19.424Z,63.23
2019-01-23T02:38:38.339Z,52.73
2019-01-23T02:43:56.905Z,51.33
2019-01-23T02:49:15.387Z,49.43
2019-01-23T02:54:34.045Z,31.67
2019-01-23T02:59:52.722Z,36.60
2019-01-23T03:05:14.171Z,46.23
2019-01-23T03:10:32.824Z,54.20
2019-01-23T03:15:51.309Z,49.30
2019-01-23T03:21:10.154Z,59.93
2019-01-23T03:26:28.781Z,55.33
2019-01-23T03:31:47.610Z,37.47
2019-01-23T03:37:06.240Z,54.60
2019-01-23T03:42:24.816Z,47.15
2019-01-23T03:47:43.535Z,29.80
2019-01-23T03:53:02.226Z,50.63
2019-01-23T03:58:20.856Z,50.40
2019-01-23T04:03:39.653Z,47.43
2019-01-23T04:08:58.316Z,50.00
2019-01-23T04:14:17.086Z,53.13
2019-01-23T04:19:35.648Z,48.53
2019-01-23T04:24:54.122Z,45.83
2019-01-23T04:30:18.189Z,49.67
2019-01-23T04:35:36.684Z,51.33
2019-01-23T04:40:55.208Z,52.80
2019-01-23T04:46:13.854Z,50.93
2019-01-23T04:51:36.829Z,43.27
2019-01-23T04:56:55.421Z,47.10
2019-01-23T05:02:14.066Z,45.77
2019-01-23T05:07:32.751Z,40.97
2019-01-23T05:12:51.893Z,48.73
2019-01-23T05:18:10.489Z,51.23
2019-01-23T05:23:29.058Z,45.23
2019-01-23T05:28:47.528Z,51.40
2019-01-23T05:34:08.191Z,42.30
2019-01-23T05:39:26.742Z,43.20
2019-01-23T05:44:45.292Z,50.40
2019-01-23T05:50:06.065Z,51.13
2019-01-23T05:55:24.623Z,56.70
2019-01-23T06:00:43.273Z,45.07
2019-01-23T06:06:01.894Z,56.05
2019-01-23T06:11:20.646Z,51.80
2019-01-23T06:16:39.438Z,58.17
2019-01-23T06:21:58.055Z,62.13
2019-01-23T06:27:16.651Z,60.15
2019-01-23T06:32:36.909Z,55.63
2019-01-23T06:37:55.562Z,52.27
2019-01-23T06:43:14.150Z,62.50
2019-01-23T06:48:32.823Z,61.30
2019-01-23T06:53:51.389Z,57.37
2019-01-23T06:59:10.117Z,59.30
2019-01-23T07:04:28.726Z,59.73
2019-01-23T07:09:47.629Z,59.17
2019-01-23T07:15:09.235Z,54.70
2019-01-23T07:20:28.046Z,68.25
2019-01-23T07:25:46.859Z,61.75
2019-01-23T07:31:05.477Z,58.77
2019-01-23T07:36:24.096Z,63.42
2019-01-23T07:41:43.113Z,56.87
2019-01-23T07:47:01.765Z,61.93
2019-01-23T07:52:20.515Z,56.53
2019-01-23T07:57:39.146Z,68.90
2019-01-23T08:02:57.772Z,63.20
2019-01-23T08:08:16.409Z,59.83
2019-01-23T08:13:35.080Z,67.47
2019-01-23T08:18:54.237Z,59.27
2019-01-23T08:24:12.796Z,70.47
2019-01-23T08:29:31.417Z,68.70
2019-01-23T08:34:50.107Z,74.75
2019-01-23T08:40:11.922Z,59.80
2019-01-23T08:45:30.569Z,66.93
2019-01-23T08:50:49.188Z,61.47
2019-01-23T08:56:07.963Z,70.77
2019-01-23T09:01:26.567Z,62.73
2019-01-23T09:06:45.196Z,64.97
2019-01-23T09:12:06.266Z,63.45
2019-01-23T09:17:24.894Z,70.52
2019-01-23T09:22:43.587Z,60.63
2019-01-23T09:28:02.208Z,57.90
2019-01-23T09:33:39.004Z,58.80
2019-01-23T09:39:09.282Z,54.47
2019-01-23T09:44:36.803Z,58.63
2019-01-23T09:50:19.098Z,52.47
2019-01-23T09:55:37.757Z,54.80
2019-01-23T10:00:59.822Z,42.75
2019-01-23T10:06:17.942Z,55.10
2019-01-23T10:11:36.558Z,54.60
2019-01-23T10:16:55.128Z,46.40
2019-01-23T10:22:14.155Z,46.37
2019-01-23T10:27:35.649Z,49.25
2019-01-23T10:32:54.221Z,55.87
2019-01-23T10:38:12.766Z,48.70
2019-01-23T10:43:31.406Z,43.17
2019-01-23T10:48:50.011Z,55.03
2019-01-23T10:54:09.925Z,49.60
2019-01-23T10:59:28.631Z,51.60
2019-01-23T11:04:47.293Z,44.93
2019-01-23T11:10:09.115Z,53.40
2019-01-23T11:15:31.910Z,47.30
2019-01-23T11:20:50.553Z,58.07
2019-01-23T11:26:09.212Z,52.77
2019-01-23T11:31:27.855Z,55.53
2019-01-23T11:36:51.877Z,50.67
2019-01-23T11:42:10.399Z,52.37
2019-01-23T11:47:29.038Z,53.70
2019-01-23T11:52:48.665Z,48.20
2019-01-23T11:58:07.292Z,54.20
2019-01-23T12:03:25.926Z,49.10
2019-01-23T12:08:44.625Z,51.73
2019-01-23T12:14:04.762Z,51.07
2019-01-23T12:19:26.439Z,61.43
2019-01-23T12:24:45.341Z,55.28
2019-01-23T12:30:06.399Z,48.73
2019-01-23T12:35:25.040Z,58.13
2019-01-23T12:40:43.670Z,65.17
2019-01-23T12:46:02.269Z,49.90
2019-01-23T12:51:20.943Z,55.03
2019-01-23T12:56:39.533Z,52.97
2019-01-23T13:01:58.201Z,59.45
2019-01-23T13:07:16.923Z,49.80
2019-01-23T13:12:35.526Z,50.43
2019-01-23T13:17:54.529Z,62.40
2019-01-23T13:23:19.703Z,58.20
2019-01-23T13:28:35.724Z,48.80
2019-01-23T13:33:54.394Z,53.43
2019-01-23T13:39:13.054Z,56.97
2019-01-23T13:44:31.801Z,51.20
2019-01-23T13:49:50.614Z,50.00
2019-01-23T13:55:25.815Z,52.43
2019-01-23T14:00:44.506Z,49.40
2019-01-23T14:06:03.142Z,54.70
2019-01-23T14:11:21.819Z,56.30
2019-01-23T14:16:40.728Z,58.75
2019-01-23T14:21:59.368Z,60.00
2019-01-23T14:27:17.942Z,60.67
2019-01-23T14:32:36.625Z,48.33
2019-01-23T14:38:00.577Z,60.77
2019-01-23T14:43:15.779Z,56.23
2019-01-23T14:48:34.409Z,64.37
2019-01-23T14:53:53.198Z,65.12
2019-01-23T14:59:12.128Z,59.13
2019-01-23T15:04:30.691Z,61.53
2019-01-23T15:09:51.023Z,64.63
2019-01-23T15:15:11.676Z,62.73
2019-01-23T15:20:33.234Z,68.03
2019-01-23T15:25:52.160Z,65.67
2019-01-23T15:31:11.006Z,68.57
2019-01-23T15:36:29.550Z,74.10
2019-01-23T15:41:48.461Z,71.20
2019-01-23T15:47:07.090Z,72.07
2019-01-23T15:52:25.965Z,74.13
2019-01-23T15:57:44.587Z,86.07
2019-01-23T16:03:03.221Z,84.47
2019-01-23T16:08:21.876Z,82.33
2019-01-23T16:13:51.411Z,80.67
2019-01-23T16:19:10.372Z,83.40
2019-01-23T16:24:29.489Z,73.60
2019-01-23T16:29:48.261Z,69.83
2019-01-23T16:35:10.080Z,78.70
2019-01-23T16:40:28.719Z,62.87
2019-01-23T16:45:47.538Z,59.37
2019-01-23T16:51:07.456Z,56.37
2019-01-23T16:56:26.143Z,70.20
2019-01-23T17:01:44.728Z,57.73
2019-01-23T17:07:03.879Z,70.37
2019-01-23T17:12:22.430Z,63.63
2019-01-23T17:17:41.213Z,75.13
2019-01-23T17:22:59.838Z,65.23
2019-01-23T17:28:30.617Z,79.90
2019-01-23T17:33:49.317Z,63.23
2019-01-23T17:39:14.668Z,58.00
2019-01-23T17:44:33.333Z,70.80
2019-01-23T17:50:07.664Z,61.97
2019-01-23T17:55:15.299Z,82.13
2019-01-23T18:00:35.577Z,64.80
2019-01-23T18:05:54.243Z,73.00
2019-01-23T18:11:12.912Z,65.67
2019-01-23T18:16:33.271Z,66.10
2019-01-23T18:21:53.508Z,66.10
2019-01-23T18:27:12.368Z,73.37
2019-01-23T18:32:30.926Z,63.97
2019-01-23T18:37:58.558Z,73.22
2019-01-23T18:43:31.936Z,74.67
2019-01-23T18:49:13.186Z,70.73
2019-01-23T18:54:31.957Z,59.20
2019-01-23T18:59:50.649Z,70.27
2019-01-23T19:05:11.322Z,75.03
2019-01-23T19:10:30.105Z,52.83
2019-01-23T19:15:48.782Z,67.63
2019-01-23T19:21:09.933Z,77.17
2019-01-23T19:26:47.896Z,74.00
2019-01-23T19:32:06.783Z,74.23
2019-01-23T19:37:31.634Z,63.07
2019-01-23T19:42:51.572Z,65.13
2019-01-23T19:48:10.353Z,64.80
2019-01-23T19:53:31.686Z,75.17
2019-01-23T19:58:58.912Z,75.57
2019-01-23T20:04:22.953Z,68.12
2019-01-23T20:09:41.757Z,62.80
2019-01-23T20:15:00.490Z,73.37
2019-01-23T20:20:29.928Z,49.80
2019-01-23T20:25:50.226Z,72.35
2019-01-23T20:31:09.003Z,73.10
2019-01-23T20:36:27.786Z,59.97
2019-01-23T20:41:49.043Z,51.33
2019-01-23T20:47:09.626Z,71.20
2019-01-23T20:52:28.358Z,66.27
2019-01-23T21:03:26.890Z,73.13
2019-01-23T21:08:52.633Z,77.13
2019-01-23T21:14:11.406Z,57.07
2019-01-23T21:19:32.343Z,63.30
2019-01-23T21:24:51.411Z,70.30
2019-01-23T21:30:18.305Z,71.73
2019-01-23T21:35:38.132Z,70.77
2019-01-23T21:40:56.689Z,64.90
2019-01-23T21:46:16.895Z,70.07
2019-01-23T21:51:35.568Z,67.60
2019-01-23T21:56:54.213Z,63.40
2019-01-23T22:02:12.857Z,70.70
2019-01-23T22:07:31.382Z,72.67
2019-01-23T22:12:50.227Z,67.20
2019-01-23T22:18:09.247Z,70.57
2019-01-23T22:23:28.072Z,70.63
2019-01-23T22:28:46.816Z,77.00
2019-01-23T22:34:05.737Z,69.33
2019-01-23T22:39:24.431Z,67.73
2019-01-23T22:44:43.960Z,72.70
2019-01-23T22:50:02.742Z,64.50
2019-01-23T22:55:22.114Z,79.33
2019-01-23T23:00:47.983Z,75.75
2019-01-23T23:06:07.420Z,74.67
2019-01-23T23:11:26.046Z,64.10
2019-01-23T23:16:44.822Z,68.23
2019-01-23T23:22:04.659Z,75.30
2019-01-23T23:27:23.330Z,71.67
2019-01-23T23:32:41.968Z,77.40
2019-01-23T23:38:00.635Z,78.20
2019-01-23T23:43:19.399Z,66.30
2019-01-23T23:48:38.046Z,76.80
2019-01-23T23:53:56.674Z,63.83
2019-01-23T23:59:15.338Z,67.00
